sensor_id;sensor_type;location;lat;lon;timestamp;temperature;humidity
21047;DHT22;10682;50.874;3.656;2024-03-25T00:01:02;3.60;99.90
21047;DHT22;10682;50.874;3.656;2024-03-25T00:03:29;3.50;99.90
21047;DHT22;10682;50.874;3.656;2024-03-25T00:05:55;3.50;99.90
21047;DHT22;10682;50.874;3.656;2024-03-25T00:08:23;3.40;99.90
21047;DHT22;10682;50.874;3.656;2024-03-25T00:10:49;3.40;99.90
21047;DHT22;10682;50.874;3.656;2024-03-25T00:13:15;3.30;99.90
21047;DHT22;10682;50.874;3.656;2024-03-25T00:15:41;3.30;99.90
21047;DHT22;10682;50.874;3.656;2024-03-25T00:18:07;3.30;99.90
21047;DHT22;10682;50.874;3.656;2024-03-25T00:20:34;3.20;99.90
21047;DHT22;10682;50.874;3.656;2024-03-25T00:23:00;3.20;99.90
21047;DHT22;10682;50.874;3.656;2024-03-25T00:25:26;3.10;99.90
21047;DHT22;10682;50.874;3.656;2024-03-25T00:27:52;3.10;99.90
21047;DHT22;10682;50.874;3.656;2024-03-25T00:30:19;3.10;99.90
21047;DHT22;10682;50.874;3.656;2024-03-25T00:32:45;3.10;99.90
21047;DHT22;10682;50.874;3.656;2024-03-25T00:35:12;3.10;99.90
21047;DHT22;10682;50.874;3.656;2024-03-25T00:37:38;3.20;99.90
21047;DHT22;10682;50.874;3.656;2024-03-25T00:40:05;3.20;99.90
21047;DHT22;10682;50.874;3.656;2024-03-25T00:42:33;3.10;99.90
21047;DHT22;10682;50.874;3.656;2024-03-25T00:45:00;3.10;99.90
21047;DHT22;10682;50.874;3.656;2024-03-25T00:47:26;3.10;99.90
21047;DHT22;10682;50.874;3.656;2024-03-25T00:49:53;3.10;99.90
21047;DHT22;10682;50.874;3.656;2024-03-25T00:52:19;3.00;99.90
21047;DHT22;10682;50.874;3.656;2024-03-25T00:54:47;3.00;99.90
21047;DHT22;10682;50.874;3.656;2024-03-25T00:57:18;2.90;99.90
21047;DHT22;10682;50.874;3.656;2024-03-25T01:00:03;2.90;99.90
21047;DHT22;10682;50.874;3.656;2024-03-25T01:03:00;2.90;99.90
21047;DHT22;10682;50.874;3.656;2024-03-25T01:05:27;2.80;99.90
21047;DHT22;10682;50.874;3.656;2024-03-25T01:07:53;2.80;99.90
21047;DHT22;10682;50.874;3.656;2024-03-25T01:10:19;2.70;99.90
21047;DHT22;10682;50.874;3.656;2024-03-25T01:12:46;2.70;99.90
21047;DHT22;10682;50.874;3.656;2024-03-25T01:15:12;2.60;99.90
21047;DHT22;10682;50.874;3.656;2024-03-25T01:17:38;2.60;99.90
21047;DHT22;10682;50.874;3.656;2024-03-25T01:20:06;2.50;99.90
21047;DHT22;10682;50.874;3.656;2024-03-25T01:22:32;2.40;99.90
21047;DHT22;10682;50.874;3.656;2024-03-25T01:24:58;2.40;99.90
21047;DHT22;10682;50.874;3.656;2024-03-25T01:27:24;2.30;99.90
21047;DHT22;10682;50.874;3.656;2024-03-25T01:29:50;2.30;99.90
21047;DHT22;10682;50.874;3.656;2024-03-25T01:32:17;2.30;99.90
21047;DHT22;10682;50.874;3.656;2024-03-25T01:34:43;2.20;99.90
21047;DHT22;10682;50.874;3.656;2024-03-25T01:37:10;2.20;99.90
21047;DHT22;10682;50.874;3.656;2024-03-25T01:39:36;2.20;99.90
21047;DHT22;10682;50.874;3.656;2024-03-25T01:42:04;2.30;99.90
21047;DHT22;10682;50.874;3.656;2024-03-25T01:44:31;2.30;99.90
21047;DHT22;10682;50.874;3.656;2024-03-25T01:46:57;2.30;99.90
21047;DHT22;10682;50.874;3.656;2024-03-25T01:49:24;2.30;99.90
21047;DHT22;10682;50.874;3.656;2024-03-25T01:51:50;2.30;99.90
21047;DHT22;10682;50.874;3.656;2024-03-25T01:54:17;2.30;99.90
21047;DHT22;10682;50.874;3.656;2024-03-25T01:56:43;2.30;99.90
21047;DHT22;10682;50.874;3.656;2024-03-25T01:59:14;2.30;99.90
21047;DHT22;10682;50.874;3.656;2024-03-25T02:01:44;2.30;99.90
21047;DHT22;10682;50.874;3.656;2024-03-25T02:04:11;2.30;99.90
21047;DHT22;10682;50.874;3.656;2024-03-25T02:06:40;2.30;99.90
21047;DHT22;10682;50.874;3.656;2024-03-25T02:09:08;2.30;99.90
21047;DHT22;10682;50.874;3.656;2024-03-25T02:11:35;2.30;99.90
21047;DHT22;10682;50.874;3.656;2024-03-25T02:14:01;2.30;99.90
21047;DHT22;10682;50.874;3.656;2024-03-25T02:16:27;2.30;99.90
21047;DHT22;10682;50.874;3.656;2024-03-25T02:18:53;2.30;99.90
21047;DHT22;10682;50.874;3.656;2024-03-25T02:21:20;2.30;99.90
21047;DHT22;10682;50.874;3.656;2024-03-25T02:23:48;2.30;99.90
21047;DHT22;10682;50.874;3.656;2024-03-25T02:26:16;2.30;99.90
21047;DHT22;10682;50.874;3.656;2024-03-25T02:28:42;2.30;99.90
21047;DHT22;10682;50.874;3.656;2024-03-25T02:31:08;2.40;99.90
21047;DHT22;10682;50.874;3.656;2024-03-25T02:33:34;2.40;99.90
21047;DHT22;10682;50.874;3.656;2024-03-25T02:36:01;2.40;99.90
21047;DHT22;10682;50.874;3.656;2024-03-25T02:38:28;2.40;99.90
21047;DHT22;10682;50.874;3.656;2024-03-25T02:40:55;2.50;99.90
21047;DHT22;10682;50.874;3.656;2024-03-25T02:43:21;2.50;99.90
21047;DHT22;10682;50.874;3.656;2024-03-25T02:48:53;2.50;99.90
21047;DHT22;10682;50.874;3.656;2024-03-25T02:51:39;2.50;99.90
21047;DHT22;10682;50.874;3.656;2024-03-25T02:54:05;2.50;99.90
21047;DHT22;10682;50.874;3.656;2024-03-25T02:56:33;2.50;99.90
21047;DHT22;10682;50.874;3.656;2024-03-25T02:59:00;2.40;99.90
21047;DHT22;10682;50.874;3.656;2024-03-25T03:01:26;2.40;99.90
21047;DHT22;10682;50.874;3.656;2024-03-25T03:03:52;2.40;99.90
21047;DHT22;10682;50.874;3.656;2024-03-25T03:06:18;2.40;99.90
21047;DHT22;10682;50.874;3.656;2024-03-25T03:08:44;2.50;99.90
21047;DHT22;10682;50.874;3.656;2024-03-25T03:11:10;2.50;99.90
21047;DHT22;10682;50.874;3.656;2024-03-25T03:13:37;2.50;99.90
21047;DHT22;10682;50.874;3.656;2024-03-25T03:16:03;2.50;99.90
21047;DHT22;10682;50.874;3.656;2024-03-25T03:18:29;2.50;99.90
21047;DHT22;10682;50.874;3.656;2024-03-25T03:20:55;2.50;99.90
21047;DHT22;10682;50.874;3.656;2024-03-25T03:23:22;2.40;99.90
21047;DHT22;10682;50.874;3.656;2024-03-25T03:25:49;2.40;99.90
21047;DHT22;10682;50.874;3.656;2024-03-25T03:28:16;2.30;99.90
21047;DHT22;10682;50.874;3.656;2024-03-25T03:30:43;2.30;99.90
21047;DHT22;10682;50.874;3.656;2024-03-25T03:33:09;2.30;99.90
21047;DHT22;10682;50.874;3.656;2024-03-25T03:35:36;2.30;99.90
21047;DHT22;10682;50.874;3.656;2024-03-25T03:38:02;2.30;99.90
21047;DHT22;10682;50.874;3.656;2024-03-25T03:40:29;2.30;99.90
21047;DHT22;10682;50.874;3.656;2024-03-25T03:42:55;2.30;99.90
21047;DHT22;10682;50.874;3.656;2024-03-25T03:45:24;2.30;99.90
21047;DHT22;10682;50.874;3.656;2024-03-25T03:47:50;2.30;99.90
21047;DHT22;10682;50.874;3.656;2024-03-25T03:50:17;2.30;99.90
21047;DHT22;10682;50.874;3.656;2024-03-25T03:52:43;2.30;99.90
21047;DHT22;10682;50.874;3.656;2024-03-25T03:55:09;2.30;99.90
21047;DHT22;10682;50.874;3.656;2024-03-25T03:57:35;2.30;99.90
21047;DHT22;10682;50.874;3.656;2024-03-25T04:00:02;2.30;99.90
21047;DHT22;10682;50.874;3.656;2024-03-25T04:02:30;2.30;99.90
21047;DHT22;10682;50.874;3.656;2024-03-25T04:04:57;2.40;99.90
21047;DHT22;10682;50.874;3.656;2024-03-25T04:07:23;2.30;99.90
21047;DHT22;10682;50.874;3.656;2024-03-25T04:09:55;2.40;99.90
21047;DHT22;10682;50.874;3.656;2024-03-25T04:12:23;2.50;99.90
21047;DHT22;10682;50.874;3.656;2024-03-25T04:14:49;2.70;99.90
21047;DHT22;10682;50.874;3.656;2024-03-25T04:17:21;2.80;99.90
21047;DHT22;10682;50.874;3.656;2024-03-25T04:19:49;2.80;99.90
21047;DHT22;10682;50.874;3.656;2024-03-25T04:22:16;2.70;99.90
21047;DHT22;10682;50.874;3.656;2024-03-25T04:24:46;2.70;99.90
21047;DHT22;10682;50.874;3.656;2024-03-25T04:27:12;3.10;99.90
21047;DHT22;10682;50.874;3.656;2024-03-25T04:29:38;3.50;99.90
21047;DHT22;10682;50.874;3.656;2024-03-25T04:32:04;3.70;99.90
21047;DHT22;10682;50.874;3.656;2024-03-25T04:35:05;3.90;99.90
21047;DHT22;10682;50.874;3.656;2024-03-25T04:40:35;3.90;99.90
21047;DHT22;10682;50.874;3.656;2024-03-25T04:43:02;4.00;99.90
21047;DHT22;10682;50.874;3.656;2024-03-25T04:45:28;4.00;99.90
21047;DHT22;10682;50.874;3.656;2024-03-25T04:47:54;4.10;99.90
21047;DHT22;10682;50.874;3.656;2024-03-25T04:50:21;4.10;99.90
21047;DHT22;10682;50.874;3.656;2024-03-25T04:52:47;4.20;99.90
21047;DHT22;10682;50.874;3.656;2024-03-25T04:55:13;4.30;99.90
21047;DHT22;10682;50.874;3.656;2024-03-25T04:57:39;4.40;99.90
21047;DHT22;10682;50.874;3.656;2024-03-25T05:00:05;4.50;99.90
21047;DHT22;10682;50.874;3.656;2024-03-25T05:02:32;4.60;99.90
21047;DHT22;10682;50.874;3.656;2024-03-25T05:04:59;4.70;99.90
21047;DHT22;10682;50.874;3.656;2024-03-25T05:07:25;4.80;99.90
21047;DHT22;10682;50.874;3.656;2024-03-25T05:09:51;4.80;99.90
21047;DHT22;10682;50.874;3.656;2024-03-25T05:12:17;4.90;99.90
21047;DHT22;10682;50.874;3.656;2024-03-25T05:14:43;5.10;99.90
21047;DHT22;10682;50.874;3.656;2024-03-25T05:17:09;5.10;99.90
21047;DHT22;10682;50.874;3.656;2024-03-25T05:19:35;5.20;99.90
21047;DHT22;10682;50.874;3.656;2024-03-25T05:22:01;5.30;99.90
21047;DHT22;10682;50.874;3.656;2024-03-25T05:24:28;5.40;99.90
21047;DHT22;10682;50.874;3.656;2024-03-25T05:26:54;5.50;99.90
21047;DHT22;10682;50.874;3.656;2024-03-25T05:29:20;5.60;99.90
21047;DHT22;10682;50.874;3.656;2024-03-25T05:32:02;5.60;99.90
21047;DHT22;10682;50.874;3.656;2024-03-25T05:34:29;5.70;99.90
21047;DHT22;10682;50.874;3.656;2024-03-25T05:36:56;5.60;99.90
21047;DHT22;10682;50.874;3.656;2024-03-25T05:39:22;5.70;99.90
21047;DHT22;10682;50.874;3.656;2024-03-25T05:41:48;5.80;99.90
21047;DHT22;10682;50.874;3.656;2024-03-25T05:44:15;5.80;99.90
21047;DHT22;10682;50.874;3.656;2024-03-25T05:46:41;5.80;99.90
21047;DHT22;10682;50.874;3.656;2024-03-25T05:49:07;5.80;99.90
21047;DHT22;10682;50.874;3.656;2024-03-25T05:51:42;5.90;99.90
21047;DHT22;10682;50.874;3.656;2024-03-25T05:54:09;5.90;99.90
21047;DHT22;10682;50.874;3.656;2024-03-25T05:56:35;6.00;99.90
21047;DHT22;10682;50.874;3.656;2024-03-25T05:59:03;6.00;99.90
21047;DHT22;10682;50.874;3.656;2024-03-25T06:01:29;6.10;99.90
21047;DHT22;10682;50.874;3.656;2024-03-25T06:03:55;6.10;99.90
21047;DHT22;10682;50.874;3.656;2024-03-25T06:06:21;6.10;99.90
21047;DHT22;10682;50.874;3.656;2024-03-25T06:08:47;6.10;99.90
21047;DHT22;10682;50.874;3.656;2024-03-25T06:11:14;6.20;99.90
21047;DHT22;10682;50.874;3.656;2024-03-25T06:13:40;6.20;99.90
21047;DHT22;10682;50.874;3.656;2024-03-25T06:16:06;6.20;99.90
21047;DHT22;10682;50.874;3.656;2024-03-25T06:18:32;6.20;99.90
21047;DHT22;10682;50.874;3.656;2024-03-25T06:21:31;6.30;99.90
21047;DHT22;10682;50.874;3.656;2024-03-25T06:23:58;6.30;99.90
21047;DHT22;10682;50.874;3.656;2024-03-25T06:26:34;6.40;99.90
21047;DHT22;10682;50.874;3.656;2024-03-25T06:29:00;6.50;99.90
21047;DHT22;10682;50.874;3.656;2024-03-25T06:31:26;6.50;99.90
21047;DHT22;10682;50.874;3.656;2024-03-25T06:34:11;6.50;99.90
21047;DHT22;10682;50.874;3.656;2024-03-25T06:36:49;6.60;99.90
21047;DHT22;10682;50.874;3.656;2024-03-25T06:39:15;6.60;99.90
21047;DHT22;10682;50.874;3.656;2024-03-25T06:41:41;6.60;99.90
21047;DHT22;10682;50.874;3.656;2024-03-25T06:44:08;6.60;99.90
21047;DHT22;10682;50.874;3.656;2024-03-25T06:46:35;6.60;99.90
21047;DHT22;10682;50.874;3.656;2024-03-25T06:49:01;6.60;99.90
21047;DHT22;10682;50.874;3.656;2024-03-25T06:51:27;6.60;99.90
21047;DHT22;10682;50.874;3.656;2024-03-25T06:53:53;6.60;99.90
21047;DHT22;10682;50.874;3.656;2024-03-25T06:56:20;6.70;99.90
21047;DHT22;10682;50.874;3.656;2024-03-25T06:58:46;6.70;99.90
21047;DHT22;10682;50.874;3.656;2024-03-25T07:01:12;6.80;99.90
21047;DHT22;10682;50.874;3.656;2024-03-25T07:03:38;6.80;99.90
21047;DHT22;10682;50.874;3.656;2024-03-25T07:06:05;6.80;99.90
21047;DHT22;10682;50.874;3.656;2024-03-25T07:08:31;6.80;99.90
21047;DHT22;10682;50.874;3.656;2024-03-25T07:10:58;6.90;99.90
21047;DHT22;10682;50.874;3.656;2024-03-25T07:13:24;6.90;99.90
21047;DHT22;10682;50.874;3.656;2024-03-25T07:15:51;7.00;99.90
21047;DHT22;10682;50.874;3.656;2024-03-25T07:18:17;7.00;99.90
21047;DHT22;10682;50.874;3.656;2024-03-25T07:20:44;7.00;99.90
21047;DHT22;10682;50.874;3.656;2024-03-25T07:23:10;7.00;99.90
21047;DHT22;10682;50.874;3.656;2024-03-25T07:25:37;7.10;99.90
21047;DHT22;10682;50.874;3.656;2024-03-25T07:28:04;7.10;99.90
21047;DHT22;10682;50.874;3.656;2024-03-25T07:30:30;7.10;99.90
21047;DHT22;10682;50.874;3.656;2024-03-25T07:32:57;7.10;99.90
21047;DHT22;10682;50.874;3.656;2024-03-25T07:35:24;7.20;99.90
21047;DHT22;10682;50.874;3.656;2024-03-25T07:37:51;7.20;99.90
21047;DHT22;10682;50.874;3.656;2024-03-25T07:40:21;7.20;99.90
21047;DHT22;10682;50.874;3.656;2024-03-25T07:42:49;7.30;99.90
21047;DHT22;10682;50.874;3.656;2024-03-25T07:45:15;7.30;99.90
21047;DHT22;10682;50.874;3.656;2024-03-25T07:47:41;7.30;99.90
21047;DHT22;10682;50.874;3.656;2024-03-25T07:50:09;7.30;99.90
21047;DHT22;10682;50.874;3.656;2024-03-25T07:52:35;7.20;99.90
21047;DHT22;10682;50.874;3.656;2024-03-25T07:55:07;7.10;99.90
21047;DHT22;10682;50.874;3.656;2024-03-25T07:57:34;7.00;99.90
21047;DHT22;10682;50.874;3.656;2024-03-25T08:00:01;7.00;99.90
21047;DHT22;10682;50.874;3.656;2024-03-25T08:02:31;7.00;99.90
21047;DHT22;10682;50.874;3.656;2024-03-25T08:05:01;7.20;99.90
21047;DHT22;10682;50.874;3.656;2024-03-25T08:07:28;7.60;99.90
21047;DHT22;10682;50.874;3.656;2024-03-25T08:09:54;7.90;99.90
21047;DHT22;10682;50.874;3.656;2024-03-25T08:12:20;8.20;99.90
21047;DHT22;10682;50.874;3.656;2024-03-25T08:14:46;8.60;99.90
21047;DHT22;10682;50.874;3.656;2024-03-25T08:17:12;9.00;99.90
21047;DHT22;10682;50.874;3.656;2024-03-25T08:19:38;9.30;99.90
21047;DHT22;10682;50.874;3.656;2024-03-25T08:22:05;9.20;99.90
21047;DHT22;10682;50.874;3.656;2024-03-25T08:24:33;9.20;99.90
21047;DHT22;10682;50.874;3.656;2024-03-25T08:26:59;9.30;99.90
21047;DHT22;10682;50.874;3.656;2024-03-25T08:29:25;9.50;99.90
21047;DHT22;10682;50.874;3.656;2024-03-25T08:31:51;9.90;99.90
21047;DHT22;10682;50.874;3.656;2024-03-25T08:34:17;10.30;99.90
21047;DHT22;10682;50.874;3.656;2024-03-25T08:36:44;10.60;99.90
21047;DHT22;10682;50.874;3.656;2024-03-25T08:39:10;10.80;99.90
21047;DHT22;10682;50.874;3.656;2024-03-25T08:41:36;10.80;99.90
21047;DHT22;10682;50.874;3.656;2024-03-25T08:44:02;11.00;99.90
21047;DHT22;10682;50.874;3.656;2024-03-25T08:46:35;11.00;99.90
21047;DHT22;10682;50.874;3.656;2024-03-25T08:49:04;11.20;99.90
21047;DHT22;10682;50.874;3.656;2024-03-25T08:51:30;11.20;99.90
21047;DHT22;10682;50.874;3.656;2024-03-25T08:53:56;10.70;99.90
21047;DHT22;10682;50.874;3.656;2024-03-25T08:56:22;9.90;99.90
21047;DHT22;10682;50.874;3.656;2024-03-25T08:58:48;9.70;99.90
21047;DHT22;10682;50.874;3.656;2024-03-25T09:01:14;9.50;99.90
21047;DHT22;10682;50.874;3.656;2024-03-25T09:03:41;9.50;99.90
21047;DHT22;10682;50.874;3.656;2024-03-25T09:06:10;9.80;99.90
21047;DHT22;10682;50.874;3.656;2024-03-25T09:08:36;10.00;99.90
21047;DHT22;10682;50.874;3.656;2024-03-25T09:11:22;10.30;99.90
21047;DHT22;10682;50.874;3.656;2024-03-25T09:13:50;10.80;99.90
21047;DHT22;10682;50.874;3.656;2024-03-25T09:16:18;10.80;99.90
21047;DHT22;10682;50.874;3.656;2024-03-25T09:18:45;10.60;99.90
21047;DHT22;10682;50.874;3.656;2024-03-25T09:21:11;10.70;99.90
21047;DHT22;10682;50.874;3.656;2024-03-25T09:23:38;10.50;99.90
21047;DHT22;10682;50.874;3.656;2024-03-25T09:26:04;10.60;99.90
21047;DHT22;10682;50.874;3.656;2024-03-25T09:28:30;10.80;99.90
21047;DHT22;10682;50.874;3.656;2024-03-25T09:30:56;11.00;99.90
21047;DHT22;10682;50.874;3.656;2024-03-25T09:33:22;10.80;99.90
21047;DHT22;10682;50.874;3.656;2024-03-25T09:35:49;10.30;99.90
21047;DHT22;10682;50.874;3.656;2024-03-25T09:38:15;10.20;99.90
21047;DHT22;10682;50.874;3.656;2024-03-25T09:40:41;10.30;99.90
21047;DHT22;10682;50.874;3.656;2024-03-25T09:43:24;10.50;99.90
21047;DHT22;10682;50.874;3.656;2024-03-25T09:45:54;10.90;99.90
21047;DHT22;10682;50.874;3.656;2024-03-25T09:48:21;11.40;99.90
21047;DHT22;10682;50.874;3.656;2024-03-25T09:50:49;11.60;99.90
21047;DHT22;10682;50.874;3.656;2024-03-25T09:53:16;11.70;99.90
21047;DHT22;10682;50.874;3.656;2024-03-25T09:55:42;11.70;99.90
21047;DHT22;10682;50.874;3.656;2024-03-25T09:58:45;11.80;99.90
21047;DHT22;10682;50.874;3.656;2024-03-25T10:01:12;11.70;99.90
21047;DHT22;10682;50.874;3.656;2024-03-25T10:03:41;11.70;99.90
21047;DHT22;10682;50.874;3.656;2024-03-25T10:06:07;12.00;99.90
21047;DHT22;10682;50.874;3.656;2024-03-25T10:08:37;12.00;99.90
21047;DHT22;10682;50.874;3.656;2024-03-25T10:11:03;12.00;99.90
21047;DHT22;10682;50.874;3.656;2024-03-25T10:13:29;11.90;99.90
21047;DHT22;10682;50.874;3.656;2024-03-25T10:15:55;12.00;99.90
21047;DHT22;10682;50.874;3.656;2024-03-25T10:18:21;12.10;99.90
21047;DHT22;10682;50.874;3.656;2024-03-25T10:20:49;12.20;99.90
21047;DHT22;10682;50.874;3.656;2024-03-25T10:23:20;12.30;99.90
21047;DHT22;10682;50.874;3.656;2024-03-25T10:25:48;12.40;99.90
21047;DHT22;10682;50.874;3.656;2024-03-25T10:28:14;12.60;99.90
21047;DHT22;10682;50.874;3.656;2024-03-25T10:30:41;12.80;99.90
21047;DHT22;10682;50.874;3.656;2024-03-25T10:33:08;12.60;99.90
21047;DHT22;10682;50.874;3.656;2024-03-25T10:35:35;12.70;99.90
21047;DHT22;10682;50.874;3.656;2024-03-25T10:38:04;13.00;99.90
21047;DHT22;10682;50.874;3.656;2024-03-25T10:40:37;12.80;99.90
21047;DHT22;10682;50.874;3.656;2024-03-25T10:43:09;12.80;99.90
21047;DHT22;10682;50.874;3.656;2024-03-25T10:45:49;13.00;99.90
21047;DHT22;10682;50.874;3.656;2024-03-25T10:48:19;13.00;99.90
21047;DHT22;10682;50.874;3.656;2024-03-25T10:50:50;13.40;99.90
21047;DHT22;10682;50.874;3.656;2024-03-25T10:53:18;13.50;99.90
21047;DHT22;10682;50.874;3.656;2024-03-25T10:55:47;13.50;99.90
21047;DHT22;10682;50.874;3.656;2024-03-25T10:58:16;13.50;99.90
21047;DHT22;10682;50.874;3.656;2024-03-25T11:00:43;13.70;99.90
21047;DHT22;10682;50.874;3.656;2024-03-25T11:03:10;13.70;99.90
21047;DHT22;10682;50.874;3.656;2024-03-25T11:05:37;13.80;99.90
21047;DHT22;10682;50.874;3.656;2024-03-25T11:08:17;13.70;99.90
21047;DHT22;10682;50.874;3.656;2024-03-25T11:10:45;13.80;99.90
21047;DHT22;10682;50.874;3.656;2024-03-25T11:13:17;13.90;99.90
21047;DHT22;10682;50.874;3.656;2024-03-25T11:15:48;14.10;99.90
21047;DHT22;10682;50.874;3.656;2024-03-25T11:18:18;14.20;99.90
21047;DHT22;10682;50.874;3.656;2024-03-25T11:21:04;14.20;99.90
21047;DHT22;10682;50.874;3.656;2024-03-25T11:23:43;14.10;99.90
21047;DHT22;10682;50.874;3.656;2024-03-25T11:26:24;13.80;99.90
21047;DHT22;10682;50.874;3.656;2024-03-25T11:28:53;13.70;99.90
21047;DHT22;10682;50.874;3.656;2024-03-25T11:31:25;13.80;99.90
21047;DHT22;10682;50.874;3.656;2024-03-25T11:33:52;14.00;99.90
21047;DHT22;10682;50.874;3.656;2024-03-25T11:36:20;14.00;99.90
21047;DHT22;10682;50.874;3.656;2024-03-25T11:39:00;14.20;99.90
21047;DHT22;10682;50.874;3.656;2024-03-25T11:41:43;14.30;99.90
21047;DHT22;10682;50.874;3.656;2024-03-25T11:44:12;14.40;99.90
21047;DHT22;10682;50.874;3.656;2024-03-25T11:49:55;14.10;99.90
21047;DHT22;10682;50.874;3.656;2024-03-25T11:52:22;14.00;99.90
21047;DHT22;10682;50.874;3.656;2024-03-25T11:54:54;14.10;99.90
21047;DHT22;10682;50.874;3.656;2024-03-25T11:57:22;13.80;99.90
21047;DHT22;10682;50.874;3.656;2024-03-25T11:59:48;13.40;99.90
21047;DHT22;10682;50.874;3.656;2024-03-25T12:02:18;13.70;99.90
21047;DHT22;10682;50.874;3.656;2024-03-25T12:04:45;14.00;99.90
21047;DHT22;10682;50.874;3.656;2024-03-25T12:07:12;14.20;99.90
21047;DHT22;10682;50.874;3.656;2024-03-25T12:09:39;13.90;99.90
21047;DHT22;10682;50.874;3.656;2024-03-25T12:12:25;13.80;99.90
21047;DHT22;10682;50.874;3.656;2024-03-25T12:14:52;13.80;99.90
21047;DHT22;10682;50.874;3.656;2024-03-25T12:17:19;13.70;99.90
21047;DHT22;10682;50.874;3.656;2024-03-25T12:20:03;13.80;99.90
21047;DHT22;10682;50.874;3.656;2024-03-25T12:22:39;13.80;99.90
21047;DHT22;10682;50.874;3.656;2024-03-25T12:25:07;14.00;99.90
21047;DHT22;10682;50.874;3.656;2024-03-25T12:27:37;14.20;99.90
21047;DHT22;10682;50.874;3.656;2024-03-25T12:30:08;14.30;99.90
21047;DHT22;10682;50.874;3.656;2024-03-25T12:32:43;13.90;99.90
21047;DHT22;10682;50.874;3.656;2024-03-25T12:35:13;13.50;99.90
21047;DHT22;10682;50.874;3.656;2024-03-25T12:37:45;13.60;99.90
21047;DHT22;10682;50.874;3.656;2024-03-25T12:40:26;13.80;99.90
21047;DHT22;10682;50.874;3.656;2024-03-25T12:42:53;14.00;99.90
21047;DHT22;10682;50.874;3.656;2024-03-25T12:45:21;14.10;99.90
21047;DHT22;10682;50.874;3.656;2024-03-25T12:47:52;14.20;99.90
21047;DHT22;10682;50.874;3.656;2024-03-25T12:50:18;14.20;99.90
21047;DHT22;10682;50.874;3.656;2024-03-25T12:52:45;14.30;99.90
21047;DHT22;10682;50.874;3.656;2024-03-25T12:55:11;14.00;99.90
21047;DHT22;10682;50.874;3.656;2024-03-25T12:57:37;14.20;99.90
21047;DHT22;10682;50.874;3.656;2024-03-25T13:00:03;14.20;99.90
21047;DHT22;10682;50.874;3.656;2024-03-25T13:02:34;14.00;99.90
21047;DHT22;10682;50.874;3.656;2024-03-25T13:05:00;13.80;99.90
21047;DHT22;10682;50.874;3.656;2024-03-25T13:07:26;13.70;99.90
21047;DHT22;10682;50.874;3.656;2024-03-25T13:09:52;13.70;99.90
21047;DHT22;10682;50.874;3.656;2024-03-25T13:12:19;13.90;99.90
21047;DHT22;10682;50.874;3.656;2024-03-25T13:14:45;14.10;99.90
21047;DHT22;10682;50.874;3.656;2024-03-25T13:17:11;14.00;99.90
21047;DHT22;10682;50.874;3.656;2024-03-25T13:19:37;14.10;99.90
21047;DHT22;10682;50.874;3.656;2024-03-25T13:22:04;13.80;99.90
21047;DHT22;10682;50.874;3.656;2024-03-25T13:24:31;13.70;99.90
21047;DHT22;10682;50.874;3.656;2024-03-25T13:26:57;13.80;99.90
21047;DHT22;10682;50.874;3.656;2024-03-25T13:29:24;14.00;99.90
21047;DHT22;10682;50.874;3.656;2024-03-25T13:31:50;14.10;99.90
21047;DHT22;10682;50.874;3.656;2024-03-25T13:37:36;14.80;99.90
21047;DHT22;10682;50.874;3.656;2024-03-25T13:40:03;14.90;99.90
21047;DHT22;10682;50.874;3.656;2024-03-25T13:42:31;14.70;99.90
21047;DHT22;10682;50.874;3.656;2024-03-25T13:44:57;14.40;99.90
21047;DHT22;10682;50.874;3.656;2024-03-25T13:47:23;14.10;99.90
21047;DHT22;10682;50.874;3.656;2024-03-25T13:49:49;13.80;99.90
21047;DHT22;10682;50.874;3.656;2024-03-25T13:52:26;13.60;99.90
21047;DHT22;10682;50.874;3.656;2024-03-25T13:54:52;13.30;99.90
21047;DHT22;10682;50.874;3.656;2024-03-25T13:57:18;13.10;99.90
21047;DHT22;10682;50.874;3.656;2024-03-25T13:59:44;13.10;99.90
21047;DHT22;10682;50.874;3.656;2024-03-25T14:02:10;13.10;99.90
21047;DHT22;10682;50.874;3.656;2024-03-25T14:04:36;13.30;99.90
21047;DHT22;10682;50.874;3.656;2024-03-25T14:07:03;13.40;99.90
21047;DHT22;10682;50.874;3.656;2024-03-25T14:09:29;13.40;99.90
21047;DHT22;10682;50.874;3.656;2024-03-25T14:11:55;13.60;99.90
21047;DHT22;10682;50.874;3.656;2024-03-25T14:14:21;13.70;99.90
21047;DHT22;10682;50.874;3.656;2024-03-25T14:16:47;13.90;99.90
21047;DHT22;10682;50.874;3.656;2024-03-25T14:19:14;13.90;99.90
21047;DHT22;10682;50.874;3.656;2024-03-25T14:21:40;13.80;99.90
21047;DHT22;10682;50.874;3.656;2024-03-25T14:24:06;13.80;99.90
21047;DHT22;10682;50.874;3.656;2024-03-25T14:26:33;13.80;99.90
21047;DHT22;10682;50.874;3.656;2024-03-25T14:28:59;13.80;99.90
21047;DHT22;10682;50.874;3.656;2024-03-25T14:31:26;13.70;99.90
21047;DHT22;10682;50.874;3.656;2024-03-25T14:33:54;13.60;99.90
21047;DHT22;10682;50.874;3.656;2024-03-25T14:36:21;13.60;99.90
21047;DHT22;10682;50.874;3.656;2024-03-25T14:38:48;13.60;99.90
21047;DHT22;10682;50.874;3.656;2024-03-25T14:41:19;13.70;99.90
21047;DHT22;10682;50.874;3.656;2024-03-25T14:43:46;13.80;99.90
21047;DHT22;10682;50.874;3.656;2024-03-25T14:46:14;13.90;99.90
21047;DHT22;10682;50.874;3.656;2024-03-25T14:48:40;13.90;99.90
21047;DHT22;10682;50.874;3.656;2024-03-25T14:51:06;13.90;99.90
21047;DHT22;10682;50.874;3.656;2024-03-25T14:53:32;13.80;99.90
21047;DHT22;10682;50.874;3.656;2024-03-25T14:55:59;13.70;99.90
21047;DHT22;10682;50.874;3.656;2024-03-25T14:58:25;13.60;99.90
21047;DHT22;10682;50.874;3.656;2024-03-25T15:00:51;13.60;99.90
21047;DHT22;10682;50.874;3.656;2024-03-25T15:03:17;13.60;99.90
21047;DHT22;10682;50.874;3.656;2024-03-25T15:05:43;13.50;99.90
21047;DHT22;10682;50.874;3.656;2024-03-25T15:08:09;13.50;99.90
21047;DHT22;10682;50.874;3.656;2024-03-25T15:10:35;13.50;99.90
21047;DHT22;10682;50.874;3.656;2024-03-25T15:13:01;13.60;99.90
21047;DHT22;10682;50.874;3.656;2024-03-25T15:15:28;13.50;99.90
21047;DHT22;10682;50.874;3.656;2024-03-25T15:18:00;13.40;99.90
21047;DHT22;10682;50.874;3.656;2024-03-25T15:20:26;13.50;99.90
21047;DHT22;10682;50.874;3.656;2024-03-25T15:22:52;13.50;99.90
21047;DHT22;10682;50.874;3.656;2024-03-25T15:25:18;13.50;99.90
21047;DHT22;10682;50.874;3.656;2024-03-25T15:27:45;13.60;99.90
21047;DHT22;10682;50.874;3.656;2024-03-25T15:30:11;13.60;99.90
21047;DHT22;10682;50.874;3.656;2024-03-25T15:32:37;13.50;99.90
21047;DHT22;10682;50.874;3.656;2024-03-25T15:35:04;13.40;99.90
21047;DHT22;10682;50.874;3.656;2024-03-25T15:37:30;13.30;99.90
21047;DHT22;10682;50.874;3.656;2024-03-25T15:39:56;13.30;99.90
21047;DHT22;10682;50.874;3.656;2024-03-25T15:42:22;13.20;99.90
21047;DHT22;10682;50.874;3.656;2024-03-25T15:44:51;13.20;99.90
21047;DHT22;10682;50.874;3.656;2024-03-25T15:47:18;13.20;99.90
21047;DHT22;10682;50.874;3.656;2024-03-25T15:49:46;13.20;99.90
21047;DHT22;10682;50.874;3.656;2024-03-25T15:52:13;13.20;99.90
21047;DHT22;10682;50.874;3.656;2024-03-25T15:54:40;13.20;99.90
21047;DHT22;10682;50.874;3.656;2024-03-25T15:57:06;13.30;99.90